createdAt,value
2023-01-17T00:02:12.951Z,69.33
2023-01-17T00:05:28.503Z,67.66
2023-01-17T00:08:48.739Z,68.18
2023-01-17T00:11:47.057Z,70.06
2023-01-17T00:14:44.829Z,69.22
2023-01-17T00:17:42.261Z,68.61
2023-01-17T00:20:57.592Z,67.52
2023-01-17T00:24:12.616Z,68.51
2023-01-17T00:27:12.348Z,67.14
2023-01-17T00:30:08.655Z,66.33
2023-01-17T00:33:05.232Z,64.61
2023-01-17T00:36:01.574Z,65.43
2023-01-17T00:38:58.098Z,65.32
2023-01-17T00:41:54.384Z,64.51
2023-01-17T00:45:10.026Z,64.16
2023-01-17T00:48:25.615Z,63.78
2023-01-17T00:51:40.773Z,65.11
2023-01-17T00:54:56.384Z,65.08
2023-01-17T00:58:11.463Z,64.76
2023-01-17T01:01:27.105Z,64.46
2023-01-17T01:04:42.732Z,64.22
2023-01-17T01:07:57.765Z,63.88
2023-01-17T01:11:13.514Z,63.07
2023-01-17T01:14:28.763Z,62.83
2023-01-17T01:17:44.118Z,62.84
2023-01-17T01:20:59.502Z,62.73
2023-01-17T01:24:14.582Z,63.01
2023-01-17T01:27:29.795Z,63.22
2023-01-17T01:30:45.023Z,64.39
2023-01-17T01:33:42.784Z,64.92
2023-01-17T01:36:40.204Z,65.52
2023-01-17T01:39:37.905Z,65.94
2023-01-17T01:42:35.555Z,71.03
2023-01-17T01:45:33.487Z,73.39
2023-01-17T01:48:31.234Z,73.77
2023-01-17T01:51:28.665Z,72.86
2023-01-17T01:54:26.267Z,67.72
2023-01-17T01:57:23.696Z,67.06
2023-01-17T02:00:21.845Z,68.42
2023-01-17T02:03:19.649Z,64.39
2023-01-17T02:06:17.125Z,57.70
2023-01-17T02:09:14.857Z,54.02
2023-01-17T02:12:12.312Z,54.33
2023-01-17T02:15:10.001Z,55.28
2023-01-17T02:18:07.424Z,56.47
2023-01-17T02:21:05.056Z,57.85
2023-01-17T02:24:02.476Z,59.11
2023-01-17T02:27:00.243Z,60.39
2023-01-17T02:29:57.908Z,67.03
2023-01-17T02:32:55.399Z,66.97
2023-01-17T02:35:53.137Z,65.38
2023-01-17T02:38:50.815Z,64.37
2023-01-17T02:41:48.459Z,64.11
2023-01-17T02:44:45.885Z,64.28
2023-01-17T02:47:43.595Z,72.81
2023-01-17T02:50:41.366Z,74.60
2023-01-17T02:53:38.800Z,68.49
2023-01-17T02:56:36.511Z,64.78
2023-01-17T02:59:33.965Z,66.87
2023-01-17T03:02:31.615Z,66.20
2023-01-17T03:05:29.073Z,63.69
2023-01-17T03:08:26.853Z,57.99
2023-01-17T03:11:24.286Z,53.25
2023-01-17T03:14:21.914Z,53.34
2023-01-17T03:17:19.355Z,54.25
2023-01-17T03:20:17.062Z,55.84
2023-01-17T03:23:14.850Z,57.21
2023-01-17T03:26:12.526Z,58.30
2023-01-17T03:29:10.327Z,59.69
2023-01-17T03:32:07.770Z,67.27
2023-01-17T03:35:05.513Z,73.45
2023-01-17T03:38:02.952Z,68.96
2023-01-17T03:41:00.728Z,66.38
2023-01-17T03:43:58.167Z,66.50
2023-01-17T03:46:55.871Z,64.29
2023-01-17T03:49:53.326Z,61.89
2023-01-17T03:52:51.411Z,57.81
2023-01-17T03:55:48.861Z,54.18
2023-01-17T03:58:46.658Z,54.33
2023-01-17T04:01:44.518Z,55.37
2023-01-17T04:04:42.054Z,56.59
2023-01-17T04:07:40.653Z,57.87
2023-01-17T04:10:38.134Z,59.15
2023-01-17T04:13:36.080Z,60.31
2023-01-17T04:16:33.574Z,66.16
2023-01-17T04:19:31.221Z,71.11
2023-01-17T04:22:28.657Z,68.23
2023-01-17T04:25:26.955Z,66.82
2023-01-17T04:28:24.408Z,64.84
2023-01-17T04:31:22.056Z,63.49
2023-01-17T04:34:19.842Z,63.22
2023-01-17T04:37:17.303Z,63.85
2023-01-17T04:40:15.066Z,62.45
2023-01-17T04:43:12.509Z,65.28
2023-01-17T04:46:11.354Z,61.29
2023-01-17T04:49:08.864Z,60.31
2023-01-17T04:52:06.491Z,61.12
2023-01-17T04:55:03.966Z,62.18
2023-01-17T04:58:01.762Z,62.06
2023-01-17T05:00:59.276Z,69.23
2023-01-17T05:03:57.089Z,68.01
2023-01-17T05:06:55.095Z,63.52
2023-01-17T05:09:52.696Z,63.34
2023-01-17T05:12:50.136Z,61.08
2023-01-17T05:15:47.988Z,60.32
2023-01-17T05:18:45.730Z,60.23
2023-01-17T05:21:43.185Z,60.40
2023-01-17T05:24:40.874Z,61.33
2023-01-17T05:27:38.300Z,61.52
2023-01-17T05:30:36.076Z,62.98
2023-01-17T05:33:33.539Z,61.33
2023-01-17T05:36:31.251Z,61.41
2023-01-17T05:39:30.927Z,62.48
2023-01-17T05:42:28.808Z,63.01
2023-01-17T05:45:26.259Z,63.76
2023-01-17T05:48:24.036Z,65.21
2023-01-17T05:51:21.474Z,64.70
2023-01-17T05:54:19.235Z,64.90
2023-01-17T05:57:17.849Z,67.16
2023-01-17T06:00:18.088Z,71.95
2023-01-17T06:03:15.506Z,72.13
2023-01-17T06:06:13.289Z,66.76
2023-01-17T06:09:12.173Z,63.74
2023-01-17T06:12:09.600Z,65.07
2023-01-17T06:15:07.321Z,63.48
2023-01-17T06:18:05.023Z,62.59
2023-01-17T06:21:02.842Z,62.80
2023-01-17T06:24:01.840Z,64.28
2023-01-17T06:27:00.385Z,63.55
2023-01-17T06:29:57.841Z,63.49
2023-01-17T06:32:55.566Z,63.22
2023-01-17T06:35:53.343Z,63.38
2023-01-17T06:38:50.799Z,63.46
2023-01-17T06:41:48.492Z,63.82
2023-01-17T06:44:45.944Z,65.36
2023-01-17T06:47:43.656Z,67.24
2023-01-17T06:50:41.113Z,65.96
2023-01-17T06:53:39.106Z,65.77
2023-01-17T06:56:36.535Z,66.22
2023-01-17T06:59:34.615Z,66.56
2023-01-17T07:02:32.040Z,66.97
2023-01-17T07:05:29.724Z,66.96
2023-01-17T07:08:27.411Z,66.85
2023-01-17T07:11:24.911Z,66.69
2023-01-17T07:14:22.523Z,66.83
2023-01-17T07:17:19.963Z,68.30
2023-01-17T07:20:17.650Z,69.77
2023-01-17T07:23:15.084Z,68.27
2023-01-17T07:26:12.790Z,67.22
2023-01-17T07:29:10.227Z,68.88
2023-01-17T07:32:09.227Z,70.76
2023-01-17T07:35:06.668Z,69.16
2023-01-17T07:38:04.310Z,68.48
2023-01-17T07:41:01.829Z,68.36
2023-01-17T07:43:59.579Z,68.05
2023-01-17T07:46:57.097Z,67.60
2023-01-17T07:49:55.230Z,67.41
2023-01-17T07:52:53.004Z,67.90
2023-01-17T07:55:50.445Z,67.18
2023-01-17T07:58:49.052Z,66.48
2023-01-17T08:01:46.695Z,65.53
2023-01-17T08:04:44.504Z,64.92
2023-01-17T08:07:42.121Z,64.52
2023-01-17T08:10:39.765Z,64.66
2023-01-17T08:13:37.230Z,64.34
2023-01-17T08:16:34.699Z,64.32
2023-01-17T08:19:32.186Z,64.31
2023-01-17T08:22:29.952Z,64.24
2023-01-17T08:25:27.389Z,64.18
2023-01-17T08:28:25.166Z,64.54
2023-01-17T08:31:22.834Z,64.75
2023-01-17T08:34:20.304Z,65.24
2023-01-17T08:37:17.943Z,65.57
2023-01-17T08:40:17.224Z,66.46
2023-01-17T08:43:15.011Z,64.54
2023-01-17T08:46:12.485Z,64.94
2023-01-17T08:49:10.154Z,67.77
2023-01-17T08:52:07.829Z,67.23
2023-01-17T08:55:05.949Z,66.45
2023-01-17T08:58:03.685Z,64.97
2023-01-17T09:01:01.232Z,63.91
2023-01-17T09:03:59.025Z,63.83
2023-01-17T09:06:57.605Z,63.90
2023-01-17T09:09:55.255Z,63.96
2023-01-17T09:12:52.706Z,63.63
2023-01-17T09:15:50.487Z,65.77
2023-01-17T09:18:48.164Z,66.65
2023-01-17T09:21:45.588Z,65.34
2023-01-17T09:24:43.670Z,62.87
2023-01-17T09:27:41.083Z,61.84
2023-01-17T09:30:38.775Z,61.27
2023-01-17T09:33:36.295Z,60.85
2023-01-17T09:36:34.447Z,61.09
2023-01-17T09:39:32.206Z,62.20
2023-01-17T09:42:29.644Z,63.49
2023-01-17T09:45:27.358Z,63.83
2023-01-17T09:48:24.821Z,63.44
2023-01-17T09:51:22.515Z,63.59
2023-01-17T09:54:20.354Z,63.84
2023-01-17T09:57:17.791Z,63.46
2023-01-17T10:00:15.762Z,62.32
2023-01-17T10:03:13.556Z,64.79
2023-01-17T10:06:11.288Z,65.98
2023-01-17T10:09:08.814Z,63.07
2023-01-17T10:12:06.284Z,61.50
2023-01-17T10:15:07.288Z,61.12
2023-01-17T10:18:05.025Z,61.39
2023-01-17T10:21:03.731Z,60.94
2023-01-17T10:24:01.166Z,59.49
2023-01-17T10:26:58.966Z,58.89
2023-01-17T10:29:56.431Z,59.27
2023-01-17T10:32:55.150Z,58.32
2023-01-17T10:35:52.587Z,59.57
2023-01-17T10:38:50.316Z,59.17
2023-01-17T10:41:47.773Z,60.94
2023-01-17T10:44:45.580Z,58.81
2023-01-17T10:47:43.333Z,58.34
2023-01-17T10:50:40.754Z,59.22
2023-01-17T10:53:38.478Z,59.22
2023-01-17T10:56:35.914Z,58.74
2023-01-17T10:59:34.001Z,59.14
2023-01-17T11:02:31.877Z,59.22
2023-01-17T11:05:29.486Z,59.37
2023-01-17T11:08:27.310Z,60.71
2023-01-17T11:11:24.755Z,60.89
2023-01-17T11:14:22.418Z,60.86
2023-01-17T11:17:19.873Z,60.96
2023-01-17T11:20:20.355Z,60.91
2023-01-17T11:23:17.785Z,61.45
2023-01-17T11:26:15.524Z,61.53
2023-01-17T11:29:13.126Z,61.15
2023-01-17T11:32:10.589Z,60.93
2023-01-17T11:35:08.265Z,61.52
2023-01-17T11:38:05.767Z,61.92
2023-01-17T11:41:17.366Z,61.61
2023-01-17T11:44:15.061Z,63.45
2023-01-17T11:47:12.536Z,67.79
2023-01-17T11:50:10.363Z,64.34
2023-01-17T11:53:07.792Z,61.67
2023-01-17T11:56:05.608Z,58.24
2023-01-17T11:59:04.284Z,55.93
2023-01-17T12:02:02.156Z,55.71
2023-01-17T12:04:59.642Z,56.11
2023-01-17T12:07:57.371Z,56.49
2023-01-17T12:10:55.120Z,57.18
2023-01-17T12:14:01.783Z,58.26
2023-01-17T12:16:59.595Z,57.80
2023-01-17T12:20:00.989Z,58.36
2023-01-17T12:22:58.794Z,58.72
2023-01-17T12:25:56.243Z,59.20
2023-01-17T12:28:53.856Z,59.80
2023-01-17T12:31:51.288Z,60.87
2023-01-17T12:34:51.074Z,61.15
2023-01-17T12:38:00.288Z,61.53
2023-01-17T12:41:01.809Z,63.38
2023-01-17T12:43:59.548Z,62.48
2023-01-17T12:46:57.004Z,62.11
2023-01-17T12:49:54.780Z,62.19
2023-01-17T12:52:52.444Z,62.06
2023-01-17T12:55:49.950Z,61.73
2023-01-17T12:58:47.663Z,61.46
2023-01-17T13:01:45.283Z,61.08
2023-01-17T13:04:57.769Z,61.07
2023-01-17T13:07:56.329Z,61.09
2023-01-17T13:10:55.076Z,61.37
2023-01-17T13:13:53.824Z,61.45
2023-01-17T13:16:51.306Z,61.51
2023-01-17T13:19:49.033Z,61.40
2023-01-17T13:22:46.471Z,61.28
2023-01-17T13:25:44.090Z,63.48
2023-01-17T13:28:41.733Z,62.61
2023-01-17T13:31:39.241Z,62.87
2023-01-17T13:34:39.407Z,61.65
2023-01-17T13:37:36.875Z,61.81
2023-01-17T13:40:34.635Z,62.03
2023-01-17T13:43:32.316Z,63.53
2023-01-17T13:46:29.742Z,63.31
2023-01-17T13:49:27.526Z,63.20
2023-01-17T13:52:25.100Z,63.06
2023-01-17T13:55:22.865Z,62.94
2023-01-17T13:58:20.310Z,62.57
2023-01-17T14:01:18.046Z,63.01
2023-01-17T14:04:15.657Z,63.02
2023-01-17T14:07:13.526Z,63.07
2023-01-17T14:10:10.984Z,63.82
2023-01-17T14:13:08.851Z,63.45
2023-01-17T14:16:06.320Z,63.94
2023-01-17T14:19:04.593Z,64.37
2023-01-17T14:22:03.255Z,64.74
2023-01-17T14:25:00.950Z,64.88
2023-01-17T14:27:58.950Z,65.04
2023-01-17T14:30:56.519Z,64.89
2023-01-17T14:33:54.653Z,65.17
2023-01-17T14:36:52.081Z,65.07
2023-01-17T14:39:49.918Z,65.14
2023-01-17T14:42:47.378Z,65.14
2023-01-17T14:45:44.927Z,65.42
2023-01-17T14:48:42.878Z,65.46
2023-01-17T14:51:40.439Z,65.66
2023-01-17T14:54:38.196Z,65.84
2023-01-17T14:57:35.665Z,65.95
2023-01-17T15:00:35.376Z,65.95
2023-01-17T15:03:32.817Z,66.04
2023-01-17T15:06:30.712Z,66.39
2023-01-17T15:09:28.410Z,66.61
2023-01-17T15:12:25.939Z,67.16
2023-01-17T15:15:23.805Z,67.55
2023-01-17T15:18:21.237Z,67.92
2023-01-17T15:21:19.753Z,68.73
2023-01-17T15:24:17.323Z,71.09
2023-01-17T15:27:16.797Z,69.14
2023-01-17T15:30:14.496Z,68.36
2023-01-17T15:33:12.141Z,68.28
2023-01-17T15:36:09.801Z,69.87
2023-01-17T15:39:07.253Z,73.01
2023-01-17T15:42:05.055Z,70.51
2023-01-17T15:45:02.501Z,69.68
2023-01-17T15:48:00.710Z,68.64
2023-01-17T15:50:58.127Z,67.53
2023-01-17T15:53:55.839Z,67.89
2023-01-17T15:56:53.545Z,67.16
2023-01-17T15:59:51.116Z,67.10
2023-01-17T16:02:50.392Z,67.62
2023-01-17T16:05:47.863Z,68.11
2023-01-17T16:08:45.599Z,68.86
2023-01-17T16:11:44.049Z,69.91
2023-01-17T16:14:59.564Z,70.73
2023-01-17T16:17:59.128Z,71.66
2023-01-17T16:20:56.761Z,72.56
2023-01-17T16:23:54.464Z,72.85
2023-01-17T16:26:51.904Z,73.15
2023-01-17T16:29:49.725Z,73.56
2023-01-17T16:32:48.544Z,73.87
2023-01-17T16:35:46.622Z,74.33
2023-01-17T16:38:44.112Z,74.62
2023-01-17T16:41:41.917Z,74.84
2023-01-17T16:44:40.993Z,75.67
2023-01-17T16:47:38.419Z,77.10
2023-01-17T16:50:36.222Z,76.27
2023-01-17T16:53:33.651Z,74.77
2023-01-17T16:56:31.296Z,74.69
2023-01-17T16:59:39.661Z,76.09
2023-01-17T17:02:43.931Z,79.61
2023-01-17T17:05:41.381Z,82.42
2023-01-17T17:08:40.159Z,81.61
2023-01-17T17:11:38.184Z,78.94
2023-01-17T17:14:35.906Z,76.23
2023-01-17T17:17:33.959Z,73.96
2023-01-17T17:20:32.232Z,74.90
2023-01-17T17:23:30.991Z,71.38
2023-01-17T17:26:31.416Z,70.80
2023-01-17T17:29:29.139Z,69.25
2023-01-17T17:32:27.756Z,67.53
2023-01-17T17:35:25.344Z,64.97
2023-01-17T17:38:23.131Z,66.25
2023-01-17T17:41:21.032Z,65.58
2023-01-17T17:44:19.781Z,64.47
2023-01-17T17:47:18.010Z,62.62
2023-01-17T17:50:16.114Z,62.47
2023-01-17T17:53:13.618Z,64.42
2023-01-17T17:56:11.875Z,64.25
2023-01-17T17:59:10.360Z,61.77
2023-01-17T18:02:11.142Z,61.22
2023-01-17T18:05:09.552Z,61.81
2023-01-17T18:08:08.068Z,61.48
2023-01-17T18:11:06.337Z,61.69
2023-01-17T18:14:04.031Z,63.04
2023-01-17T18:17:02.312Z,60.97
2023-01-17T18:20:00.769Z,61.13
2023-01-17T18:22:58.778Z,61.99
2023-01-17T18:25:57.429Z,62.31
2023-01-17T18:28:55.426Z,62.18
2023-01-17T18:31:53.526Z,62.70
2023-01-17T18:34:51.739Z,63.34
2023-01-17T18:37:49.720Z,63.10
2023-01-17T18:40:47.457Z,63.53
2023-01-17T18:43:45.854Z,64.22
2023-01-17T18:46:44.061Z,64.40
2023-01-17T18:49:42.013Z,63.64
2023-01-17T18:52:40.845Z,63.47
2023-01-17T18:55:41.377Z,63.70
2023-01-17T18:58:40.167Z,66.58
2023-01-17T19:01:38.350Z,64.05
2023-01-17T19:04:39.134Z,60.80
2023-01-17T19:07:36.760Z,60.97
2023-01-17T19:10:35.383Z,62.17
2023-01-17T19:13:32.913Z,62.41
2023-01-17T19:16:31.435Z,63.65
2023-01-17T19:19:30.239Z,64.00
2023-01-17T19:22:28.650Z,63.93
2023-01-17T19:25:27.416Z,62.93
2023-01-17T19:28:26.435Z,66.56
2023-01-17T19:31:24.683Z,64.13
2023-01-17T19:34:23.165Z,63.28
2023-01-17T19:37:21.654Z,63.34
2023-01-17T19:40:21.922Z,65.40
2023-01-17T19:43:21.010Z,64.39
2023-01-17T19:46:20.273Z,62.35
2023-01-17T19:49:24.115Z,62.74
2023-01-17T19:52:25.633Z,62.94
2023-01-17T19:55:26.112Z,63.52
2023-01-17T19:58:24.566Z,64.66
2023-01-17T20:01:23.452Z,62.77
2023-01-17T20:04:22.254Z,62.93
2023-01-17T20:07:20.760Z,63.80
2023-01-17T20:10:19.134Z,63.18
2023-01-17T20:13:17.173Z,66.04
2023-01-17T20:16:16.778Z,63.48
2023-01-17T20:19:15.787Z,61.21
2023-01-17T20:22:14.588Z,62.04
2023-01-17T20:25:13.182Z,63.21
2023-01-17T20:28:12.788Z,63.71
2023-01-17T20:31:12.831Z,65.17
2023-01-17T20:34:12.030Z,66.24
2023-01-17T20:37:09.975Z,67.47
2023-01-17T20:40:09.689Z,66.67
2023-01-17T20:43:11.075Z,66.67
2023-01-17T20:46:09.633Z,67.44
2023-01-17T20:49:09.068Z,66.84
2023-01-17T20:52:06.638Z,65.97
2023-01-17T20:55:04.550Z,65.49
2023-01-17T20:58:03.062Z,64.83
2023-01-17T21:01:00.933Z,63.67
2023-01-17T21:03:58.785Z,62.78
2023-01-17T21:06:56.887Z,62.66
2023-01-17T21:09:55.193Z,63.47
2023-01-17T21:12:52.858Z,63.52
2023-01-17T21:15:50.638Z,63.42
2023-01-17T21:18:48.409Z,63.82
2023-01-17T21:21:46.476Z,64.82
2023-01-17T21:24:43.963Z,65.03
2023-01-17T21:27:41.875Z,65.66
2023-01-17T21:30:39.382Z,66.27
2023-01-17T21:33:37.144Z,67.76
2023-01-17T21:36:34.648Z,68.82
2023-01-17T21:39:32.650Z,68.46
2023-01-17T21:42:31.312Z,69.48
2023-01-17T21:45:32.254Z,70.06
2023-01-17T21:48:29.822Z,70.23
2023-01-17T21:51:47.523Z,70.96
2023-01-17T21:55:03.123Z,70.85
2023-01-17T21:58:29.638Z,71.27
2023-01-17T22:01:27.453Z,71.60
2023-01-17T22:04:25.720Z,72.25
2023-01-17T22:07:23.477Z,72.70
2023-01-17T22:10:21.246Z,73.02
2023-01-17T22:13:19.011Z,73.42
2023-01-17T22:16:16.471Z,74.05
2023-01-17T22:19:14.227Z,74.18
2023-01-17T22:22:12.723Z,74.43
2023-01-17T22:25:10.467Z,74.36
2023-01-17T22:28:08.263Z,74.40
2023-01-17T22:31:05.750Z,73.96
2023-01-17T22:34:03.689Z,73.62
2023-01-17T22:37:04.069Z,74.21
2023-01-17T22:40:05.081Z,74.22
2023-01-17T22:43:02.544Z,74.40
2023-01-17T22:46:00.407Z,74.87
2023-01-17T22:48:58.152Z,74.60
2023-01-17T22:51:56.827Z,74.99
2023-01-17T22:54:54.522Z,75.21
2023-01-17T22:57:54.018Z,75.53
2023-01-17T23:00:51.806Z,75.76
2023-01-17T23:03:49.594Z,75.73
2023-01-17T23:06:47.423Z,75.71
2023-01-17T23:09:45.189Z,76.14
2023-01-17T23:12:42.641Z,76.37
2023-01-17T23:16:09.974Z,76.51
2023-01-17T23:19:26.109Z,76.47
2023-01-17T23:22:23.573Z,76.47
2023-01-17T23:25:23.589Z,76.82
2023-01-17T23:28:21.766Z,77.21
2023-01-17T23:31:19.460Z,77.40
2023-01-17T23:34:17.514Z,77.32
2023-01-17T23:37:15.375Z,77.32
2023-01-17T23:40:13.140Z,77.38
2023-01-17T23:43:26.063Z,77.44
2023-01-17T23:46:24.378Z,77.65
2023-01-17T23:49:22.046Z,77.58
2023-01-17T23:52:19.576Z,77.82
2023-01-17T23:55:17.040Z,78.07
2023-01-17T23:58:14.797Z,78.22
